Kamishli, Al-Qamishli Airport (OSKL)

NameAl-Qamishli Airport
CityKamishli
CountrySyrian Arab Republic
ICAOOSKL
IATAKAC
Altitude451 m
CoordinatesGoogle Map
Live Air TrafficLiveATC.net
METAROSKL 271300Z 22006KT CAVOK 19/01 Q1021
2020-02-27 13:00:00 Wind: South-Southwest (220°) 3.09 m/s - Visibility: > 10000 m - Weather: CAVOK - Temperature: 19 °C - Dew point: 1 °C - Humidity: 30.1% - Pressure: 1021 hPa
Statistics

The table below shows the detailed information of all flights to/from Kamishli, Al-Qamishli Airport (OSKL).